Weather Data

Pearl Creek Farm: 8878 N Farm Road 75, Walnut Grove MO 65770

<== Previous Day (Tuesday 22 Mar 2011) | Next Day (Thursday 24 Mar 2011) ==>

Summary Precipitation Data For Wednesday 23 March 2011

ElementValueUnits
Precipitation0"
Notes(none)
SourcePearl Creek Farm

Summary Temperature Data For Wednesday 23 March 2011

ElementValueUnits
High Temperature68 oF
Low Temperature50 oF
Average Temperature61 oF
High Humidity82 %
Low Humidity39 %
Average Humidity60 %
SourcePearl Creek Farm

Detail Temperature Data For Wednesday 23 March 2011

Date / TimeTemp (F)RH (%)Dew Pt (F)Report Date / TimeSource
2011-03-23 00:00:00 67 72 57.7 2011-05-13 22:19:16 Pearl Creek Farm
2011-03-23 00:30:00 68 71 58.1 2011-05-13 22:19:16 Pearl Creek Farm
2011-03-23 01:00:00 68 70 57.7 2011-05-13 22:19:16 Pearl Creek Farm
2011-03-23 01:30:00 68 70 57.7 2011-05-13 22:19:16 Pearl Creek Farm
2011-03-23 02:00:00 67 71 57.1 2011-05-13 22:19:16 Pearl Creek Farm
2011-03-23 02:30:00 67 71 57.1 2011-05-13 22:19:16 Pearl Creek Farm
2011-03-23 03:00:00 67 72 57.7 2011-05-13 22:19:16 Pearl Creek Farm
2011-03-23 03:30:00 66 74 57.3 2011-05-13 22:19:16 Pearl Creek Farm
2011-03-23 04:00:00 65 75 56.7 2011-05-13 22:19:16 Pearl Creek Farm
2011-03-23 04:30:00 65 75 56.9 2011-05-13 22:19:16 Pearl Creek Farm
2011-03-23 05:00:00 64 76 56.3 2011-05-13 22:19:16 Pearl Creek Farm
2011-03-23 05:30:00 63 74 54.6 2011-05-13 22:19:16 Pearl Creek Farm
2011-03-23 06:00:00 61 72 51.7 2011-05-13 22:19:16 Pearl Creek Farm
2011-03-23 06:30:00 58 76 50.3 2011-05-13 22:19:16 Pearl Creek Farm
2011-03-23 07:00:00 57 77 49.9 2011-05-13 22:19:16 Pearl Creek Farm
2011-03-23 07:30:00 55 79 48.4 2011-05-13 22:19:16 Pearl Creek Farm
2011-03-23 08:00:00 53 80 47.0 2011-05-13 22:19:16 Pearl Creek Farm
2011-03-23 08:30:00 53 82 47.5 2011-05-13 22:19:16 Pearl Creek Farm
2011-03-23 09:00:00 53 82 47.5 2011-05-13 22:19:16 Pearl Creek Farm
2011-03-23 09:30:00 55 78 48.3 2011-05-13 22:19:16 Pearl Creek Farm
2011-03-23 10:00:00 57 72 48.1 2011-05-13 22:19:16 Pearl Creek Farm
2011-03-23 10:30:00 58 61 44.4 2011-05-13 22:19:16 Pearl Creek Farm
2011-03-23 11:00:00 59 59 44.7 2011-05-13 22:19:16 Pearl Creek Farm
2011-03-23 11:30:00 60 56 44.3 2011-05-13 22:19:16 Pearl Creek Farm
2011-03-23 12:00:00 61 52 43.3 2011-05-13 22:19:16 Pearl Creek Farm
2011-03-23 12:30:00 62 48 41.8 2011-05-13 22:19:16 Pearl Creek Farm
2011-03-23 13:00:00 63 48 42.8 2011-05-13 22:19:16 Pearl Creek Farm
2011-03-23 13:30:00 64 50 44.7 2011-05-13 22:19:16 Pearl Creek Farm
2011-03-23 14:00:00 64 46 42.5 2011-05-13 22:19:16 Pearl Creek Farm
2011-03-23 14:30:00 64 44 41.4 2011-05-13 22:19:16 Pearl Creek Farm
2011-03-23 15:00:00 64 44 41.4 2011-05-13 22:19:16 Pearl Creek Farm
2011-03-23 15:30:00 64 43 40.8 2011-05-13 22:19:16 Pearl Creek Farm
2011-03-23 16:00:00 65 39 39.5 2011-05-13 22:19:16 Pearl Creek Farm
2011-03-23 16:30:00 65 41 40.4 2011-05-13 22:19:16 Pearl Creek Farm
2011-03-23 17:00:00 65 39 39.5 2011-05-13 22:19:16 Pearl Creek Farm
2011-03-23 17:30:00 65 41 40.4 2011-05-13 22:19:16 Pearl Creek Farm
2011-03-23 18:00:00 64 41 39.5 2011-05-13 22:19:16 Pearl Creek Farm
2011-03-23 18:30:00 63 42 39.3 2011-05-13 22:19:16 Pearl Creek Farm
2011-03-23 19:00:00 61 45 39.3 2011-05-13 22:19:16 Pearl Creek Farm
2011-03-23 19:30:00 60 46 38.9 2011-05-13 22:19:16 Pearl Creek Farm
2011-03-23 20:00:00 61 44 39.0 2011-05-13 22:19:16 Pearl Creek Farm
2011-03-23 20:30:00 58 47 37.6 2011-05-13 22:19:16 Pearl Creek Farm
2011-03-23 21:00:00 56 50 37.7 2011-05-13 22:19:16 Pearl Creek Farm
2011-03-23 21:30:00 54 53 37.3 2011-05-13 22:19:16 Pearl Creek Farm
2011-03-23 22:00:00 53 54 36.6 2011-05-13 22:19:16 Pearl Creek Farm
2011-03-23 22:30:00 52 56 36.6 2011-05-13 22:19:16 Pearl Creek Farm
2011-03-23 23:00:00 51 58 36.6 2011-05-13 22:19:16 Pearl Creek Farm
2011-03-23 23:30:00 50 55 34.5 2011-05-13 22:19:16 Pearl Creek Farm

A total of 48 rows are displayed.